sensor_id;sensor_type;location;lat;lon;timestamp;P1;durP1;ratioP1;P2;durP2;ratioP2
46983;SDS011;34732;52.112;9.366;2023-08-01T05:52:25;4.75;;;0.82;;
46983;SDS011;34732;52.112;9.366;2023-08-01T05:55:53;1.83;;;0.50;;
46983;SDS011;34732;52.112;9.366;2023-08-01T05:59:16;2.10;;;0.40;;
46983;SDS011;34732;52.112;9.366;2023-08-01T06:02:50;2.45;;;0.65;;
46983;SDS011;34732;52.112;9.366;2023-08-01T06:06:14;1.70;;;0.40;;
46983;SDS011;34732;52.112;9.366;2023-08-01T06:09:38;1.25;;;0.57;;
46983;SDS011;34732;52.112;9.366;2023-08-01T06:13:04;2.45;;;0.52;;
46983;SDS011;34732;52.112;9.366;2023-08-01T06:20:25;0.80;;;0.50;;
46983;SDS011;34732;52.112;9.366;2023-08-01T06:23:48;1.65;;;0.40;;
46983;SDS011;34732;52.112;9.366;2023-08-01T06:27:09;2.20;;;0.50;;
46983;SDS011;34732;52.112;9.366;2023-08-01T06:30:36;1.13;;;0.60;;
46983;SDS011;34732;52.112;9.366;2023-08-01T06:38:03;1.52;;;0.80;;
46983;SDS011;34732;52.112;9.366;2023-08-01T06:41:29;2.67;;;1.17;;
46983;SDS011;34732;52.112;9.366;2023-08-01T06:44:53;3.88;;;1.30;;
46983;SDS011;34732;52.112;9.366;2023-08-01T06:48:22;3.72;;;1.55;;
46983;SDS011;34732;52.112;9.366;2023-08-01T06:51:45;5.97;;;1.50;;
46983;SDS011;34732;52.112;9.366;2023-08-01T06:55:09;4.25;;;1.67;;
46983;SDS011;34732;52.112;9.366;2023-08-01T06:58:32;3.28;;;1.60;;
46983;SDS011;34732;52.112;9.366;2023-08-01T07:01:55;4.57;;;2.15;;
46983;SDS011;34732;52.112;9.366;2023-08-01T07:05:19;5.18;;;2.05;;
46983;SDS011;34732;52.112;9.366;2023-08-01T07:12:54;6.80;;;2.55;;
46983;SDS011;34732;52.112;9.366;2023-08-01T07:16:27;5.45;;;2.60;;
46983;SDS011;34732;52.112;9.366;2023-08-01T07:19:51;4.50;;;2.50;;
46983;SDS011;34732;52.112;9.366;2023-08-01T07:23:15;3.13;;;2.38;;
46983;SDS011;34732;52.112;9.366;2023-08-01T07:26:38;3.58;;;2.00;;
46983;SDS011;34732;52.112;9.366;2023-08-01T07:29:59;4.97;;;2.15;;
46983;SDS011;34732;52.112;9.366;2023-08-01T07:33:23;3.60;;;2.25;;
46983;SDS011;34732;52.112;9.366;2023-08-01T07:36:49;6.13;;;2.28;;
46983;SDS011;34732;52.112;9.366;2023-08-01T07:40:17;4.82;;;2.38;;
46983;SDS011;34732;52.112;9.366;2023-08-01T07:43:43;3.50;;;2.45;;
46983;SDS011;34732;52.112;9.366;2023-08-01T07:47:04;4.30;;;2.10;;
46983;SDS011;34732;52.112;9.366;2023-08-01T07:50:30;3.55;;;2.03;;
46983;SDS011;34732;52.112;9.366;2023-08-01T07:53:57;3.88;;;2.60;;
46983;SDS011;34732;52.112;9.366;2023-08-01T07:57:22;5.03;;;2.40;;
46983;SDS011;34732;52.112;9.366;2023-08-01T08:00:48;5.85;;;2.45;;
46983;SDS011;34732;52.112;9.366;2023-08-01T08:04:10;3.70;;;2.40;;
46983;SDS011;34732;52.112;9.366;2023-08-01T08:07:35;3.80;;;2.33;;
46983;SDS011;34732;52.112;9.366;2023-08-01T08:10:59;4.90;;;2.45;;
46983;SDS011;34732;52.112;9.366;2023-08-01T08:14:28;5.07;;;2.50;;
46983;SDS011;34732;52.112;9.366;2023-08-01T08:17:50;4.93;;;2.35;;
46983;SDS011;34732;52.112;9.366;2023-08-01T08:21:19;5.05;;;2.42;;
46983;SDS011;34732;52.112;9.366;2023-08-01T08:24:44;3.50;;;2.10;;
46983;SDS011;34732;52.112;9.366;2023-08-01T08:28:08;5.07;;;2.55;;
46983;SDS011;34732;52.112;9.366;2023-08-01T08:31:36;4.53;;;2.22;;
46983;SDS011;34732;52.112;9.366;2023-08-01T08:35:01;5.15;;;2.33;;
46983;SDS011;34732;52.112;9.366;2023-08-01T08:38:24;4.32;;;2.40;;
46983;SDS011;34732;52.112;9.366;2023-08-01T08:41:50;4.60;;;2.60;;
46983;SDS011;34732;52.112;9.366;2023-08-01T08:45:18;4.00;;;2.47;;
46983;SDS011;34732;52.112;9.366;2023-08-01T08:48:40;5.18;;;3.00;;
46983;SDS011;34732;52.112;9.366;2023-08-01T08:52:05;3.90;;;3.05;;
46983;SDS011;34732;52.112;9.366;2023-08-01T08:55:32;3.75;;;2.92;;
46983;SDS011;34732;52.112;9.366;2023-08-01T08:58:56;4.55;;;2.85;;
46983;SDS011;34732;52.112;9.366;2023-08-01T09:02:17;5.65;;;3.55;;
46983;SDS011;34732;52.112;9.366;2023-08-01T09:09:45;5.75;;;3.28;;
46983;SDS011;34732;52.112;9.366;2023-08-01T09:13:09;4.55;;;3.00;;
46983;SDS011;34732;52.112;9.366;2023-08-01T09:16:30;4.07;;;2.70;;
46983;SDS011;34732;52.112;9.366;2023-08-01T09:20:05;5.45;;;3.05;;
46983;SDS011;34732;52.112;9.366;2023-08-01T09:23:33;3.95;;;3.30;;
46983;SDS011;34732;52.112;9.366;2023-08-01T09:27:06;3.55;;;2.60;;
46983;SDS011;34732;52.112;9.366;2023-08-01T09:30:30;4.05;;;2.70;;
46983;SDS011;34732;52.112;9.366;2023-08-01T09:38:16;3.95;;;2.47;;
46983;SDS011;34732;52.112;9.366;2023-08-01T09:45:24;3.60;;;2.58;;
46983;SDS011;34732;52.112;9.366;2023-08-01T09:48:47;5.30;;;3.20;;
46983;SDS011;34732;52.112;9.366;2023-08-01T09:52:46;4.50;;;2.72;;
46983;SDS011;34732;52.112;9.366;2023-08-01T09:56:00;4.40;;;2.58;;
46983;SDS011;34732;52.112;9.366;2023-08-01T09:59:25;2.90;;;2.47;;
46983;SDS011;34732;52.112;9.366;2023-08-01T10:02:47;3.83;;;2.78;;
46983;SDS011;34732;52.112;9.366;2023-08-01T10:06:19;4.00;;;2.38;;
46983;SDS011;34732;52.112;9.366;2023-08-01T10:09:57;3.00;;;2.38;;
46983;SDS011;34732;52.112;9.366;2023-08-01T10:13:24;4.82;;;3.00;;
46983;SDS011;34732;52.112;9.366;2023-08-01T10:16:50;7.05;;;3.03;;
46983;SDS011;34732;52.112;9.366;2023-08-01T10:20:17;2.95;;;2.20;;
46983;SDS011;34732;52.112;9.366;2023-08-01T10:23:46;3.65;;;2.65;;
46983;SDS011;34732;52.112;9.366;2023-08-01T10:27:10;3.55;;;2.17;;
46983;SDS011;34732;52.112;9.366;2023-08-01T10:30:37;3.10;;;2.60;;
46983;SDS011;34732;52.112;9.366;2023-08-01T10:34:13;2.80;;;2.00;;
46983;SDS011;34732;52.112;9.366;2023-08-01T10:37:41;4.55;;;2.33;;
46983;SDS011;34732;52.112;9.366;2023-08-01T10:44:46;4.32;;;2.40;;
46983;SDS011;34732;52.112;9.366;2023-08-01T10:48:08;3.45;;;2.35;;
46983;SDS011;34732;52.112;9.366;2023-08-01T10:51:38;3.58;;;2.50;;
46983;SDS011;34732;52.112;9.366;2023-08-01T10:58:31;3.47;;;2.05;;
46983;SDS011;34732;52.112;9.366;2023-08-01T11:01:57;4.45;;;2.20;;
46983;SDS011;34732;52.112;9.366;2023-08-01T11:05:22;4.35;;;2.13;;
46983;SDS011;34732;52.112;9.366;2023-08-01T11:08:44;3.15;;;2.53;;
46983;SDS011;34732;52.112;9.366;2023-08-01T11:12:07;4.00;;;2.35;;
46983;SDS011;34732;52.112;9.366;2023-08-01T11:15:31;3.80;;;2.17;;
46983;SDS011;34732;52.112;9.366;2023-08-01T11:18:54;4.20;;;2.58;;
46983;SDS011;34732;52.112;9.366;2023-08-01T11:22:16;3.97;;;2.58;;
46983;SDS011;34732;52.112;9.366;2023-08-01T11:30:01;6.75;;;2.55;;
46983;SDS011;34732;52.112;9.366;2023-08-01T11:33:27;3.13;;;1.98;;
46983;SDS011;34732;52.112;9.366;2023-08-01T11:36:54;3.65;;;2.00;;
46983;SDS011;34732;52.112;9.366;2023-08-01T11:40:15;3.05;;;2.75;;
46983;SDS011;34732;52.112;9.366;2023-08-01T11:47:10;3.95;;;2.90;;
46983;SDS011;34732;52.112;9.366;2023-08-01T11:50:37;3.15;;;2.63;;
46983;SDS011;34732;52.112;9.366;2023-08-01T11:54:01;4.18;;;3.20;;
46983;SDS011;34732;52.112;9.366;2023-08-01T11:57:29;6.00;;;3.28;;
46983;SDS011;34732;52.112;9.366;2023-08-01T12:01:10;5.43;;;3.10;;
46983;SDS011;34732;52.112;9.366;2023-08-01T12:04:32;4.63;;;3.30;;
46983;SDS011;34732;52.112;9.366;2023-08-01T12:08:16;5.43;;;3.50;;
46983;SDS011;34732;52.112;9.366;2023-08-01T12:15:41;5.30;;;3.40;;
46983;SDS011;34732;52.112;9.366;2023-08-01T12:19:02;5.35;;;3.97;;
46983;SDS011;34732;52.112;9.366;2023-08-01T12:22:26;6.57;;;3.58;;
46983;SDS011;34732;52.112;9.366;2023-08-01T12:25:54;5.32;;;3.88;;
46983;SDS011;34732;52.112;9.366;2023-08-01T12:29:16;4.80;;;4.07;;
46983;SDS011;34732;52.112;9.366;2023-08-01T12:32:51;7.65;;;4.90;;
46983;SDS011;34732;52.112;9.366;2023-08-01T12:36:17;19.33;;;11.90;;
46983;SDS011;34732;52.112;9.366;2023-08-01T12:39:40;25.73;;;13.50;;
46983;SDS011;34732;52.112;9.366;2023-08-01T12:43:01;20.17;;;12.70;;
46983;SDS011;34732;52.112;9.366;2023-08-01T12:46:23;21.02;;;9.02;;
46983;SDS011;34732;52.112;9.366;2023-08-01T12:49:46;12.30;;;7.05;;
46983;SDS011;34732;52.112;9.366;2023-08-01T12:53:15;9.00;;;5.95;;
46983;SDS011;34732;52.112;9.366;2023-08-01T12:56:36;8.77;;;5.18;;
46983;SDS011;34732;52.112;9.366;2023-08-01T13:00:00;10.85;;;5.43;;
46983;SDS011;34732;52.112;9.366;2023-08-01T13:07:19;5.65;;;3.92;;
46983;SDS011;34732;52.112;9.366;2023-08-01T13:10:42;7.10;;;4.20;;
46983;SDS011;34732;52.112;9.366;2023-08-01T13:14:06;5.95;;;4.18;;
46983;SDS011;34732;52.112;9.366;2023-08-01T13:17:32;6.22;;;3.30;;
46983;SDS011;34732;52.112;9.366;2023-08-01T13:20:58;5.47;;;3.08;;
46983;SDS011;34732;52.112;9.366;2023-08-01T13:24:24;5.07;;;2.70;;
46983;SDS011;34732;52.112;9.366;2023-08-01T13:27:45;4.10;;;2.67;;
46983;SDS011;34732;52.112;9.366;2023-08-01T13:31:09;4.35;;;3.20;;
46983;SDS011;34732;52.112;9.366;2023-08-01T13:34:33;5.18;;;2.80;;
46983;SDS011;34732;52.112;9.366;2023-08-01T13:38:01;4.82;;;2.97;;
46983;SDS011;34732;52.112;9.366;2023-08-01T13:41:23;4.38;;;2.50;;
46983;SDS011;34732;52.112;9.366;2023-08-01T13:44:53;4.07;;;2.35;;
46983;SDS011;34732;52.112;9.366;2023-08-01T13:48:19;4.47;;;3.13;;
46983;SDS011;34732;52.112;9.366;2023-08-01T13:51:47;2.67;;;2.03;;
46983;SDS011;34732;52.112;9.366;2023-08-01T13:55:13;3.70;;;2.50;;
46983;SDS011;34732;52.112;9.366;2023-08-01T13:58:40;4.78;;;2.10;;
46983;SDS011;34732;52.112;9.366;2023-08-01T14:02:06;4.03;;;2.60;;
46983;SDS011;34732;52.112;9.366;2023-08-01T14:05:27;5.68;;;2.70;;
46983;SDS011;34732;52.112;9.366;2023-08-01T14:08:51;4.30;;;2.30;;
46983;SDS011;34732;52.112;9.366;2023-08-01T14:12:12;5.03;;;2.53;;
46983;SDS011;34732;52.112;9.366;2023-08-01T14:15:33;3.47;;;2.55;;
46983;SDS011;34732;52.112;9.366;2023-08-01T14:18:59;4.18;;;2.20;;
46983;SDS011;34732;52.112;9.366;2023-08-01T14:22:20;3.85;;;2.38;;
46983;SDS011;34732;52.112;9.366;2023-08-01T14:25:47;4.38;;;2.42;;
46983;SDS011;34732;52.112;9.366;2023-08-01T14:29:10;5.43;;;2.58;;
46983;SDS011;34732;52.112;9.366;2023-08-01T14:32:37;6.72;;;2.85;;
46983;SDS011;34732;52.112;9.366;2023-08-01T14:36:06;4.10;;;2.30;;
46983;SDS011;34732;52.112;9.366;2023-08-01T14:39:36;4.18;;;2.38;;
46983;SDS011;34732;52.112;9.366;2023-08-01T14:42:57;4.90;;;1.73;;
46983;SDS011;34732;52.112;9.366;2023-08-01T14:46:21;4.93;;;1.90;;
46983;SDS011;34732;52.112;9.366;2023-08-01T14:49:44;4.35;;;1.48;;
46983;SDS011;34732;52.112;9.366;2023-08-01T14:53:10;3.05;;;1.52;;
46983;SDS011;34732;52.112;9.366;2023-08-01T14:56:36;2.63;;;1.60;;
46983;SDS011;34732;52.112;9.366;2023-08-01T15:00:02;3.95;;;1.58;;
46983;SDS011;34732;52.112;9.366;2023-08-01T15:03:28;4.05;;;1.55;;
46983;SDS011;34732;52.112;9.366;2023-08-01T15:06:49;3.75;;;1.50;;
46983;SDS011;34732;52.112;9.366;2023-08-01T15:10:15;3.55;;;1.65;;
46983;SDS011;34732;52.112;9.366;2023-08-01T15:13:38;3.35;;;1.77;;
46983;SDS011;34732;52.112;9.366;2023-08-01T15:17:18;2.42;;;1.48;;
46983;SDS011;34732;52.112;9.366;2023-08-01T15:20:42;2.85;;;1.50;;
46983;SDS011;34732;52.112;9.366;2023-08-01T15:24:17;3.15;;;1.38;;
46983;SDS011;34732;52.112;9.366;2023-08-01T15:27:38;4.15;;;1.60;;
46983;SDS011;34732;52.112;9.366;2023-08-01T15:31:07;4.40;;;1.60;;
46983;SDS011;34732;52.112;9.366;2023-08-01T15:34:34;3.97;;;1.60;;
46983;SDS011;34732;52.112;9.366;2023-08-01T15:37:59;2.28;;;1.27;;
46983;SDS011;34732;52.112;9.366;2023-08-01T15:41:28;2.08;;;1.60;;
46983;SDS011;34732;52.112;9.366;2023-08-01T15:44:59;3.40;;;1.70;;
46983;SDS011;34732;52.112;9.366;2023-08-01T15:48:25;4.45;;;1.98;;
46983;SDS011;34732;52.112;9.366;2023-08-01T15:51:46;3.45;;;1.70;;
46983;SDS011;34732;52.112;9.366;2023-08-01T15:55:12;3.90;;;1.60;;
46983;SDS011;34732;52.112;9.366;2023-08-01T15:58:38;3.28;;;1.42;;
46983;SDS011;34732;52.112;9.366;2023-08-01T16:02:16;3.42;;;1.90;;
46983;SDS011;34732;52.112;9.366;2023-08-01T16:05:39;5.50;;;1.83;;
46983;SDS011;34732;52.112;9.366;2023-08-01T16:09:16;4.68;;;1.95;;
46983;SDS011;34732;52.112;9.366;2023-08-01T16:12:37;3.25;;;1.83;;
46983;SDS011;34732;52.112;9.366;2023-08-01T16:16:04;3.60;;;1.60;;
46983;SDS011;34732;52.112;9.366;2023-08-01T16:19:28;3.17;;;1.60;;
46983;SDS011;34732;52.112;9.366;2023-08-01T16:22:52;3.78;;;1.50;;
46983;SDS011;34732;52.112;9.366;2023-08-01T16:26:15;3.55;;;1.58;;
46983;SDS011;34732;52.112;9.366;2023-08-01T16:29:43;4.45;;;1.75;;
46983;SDS011;34732;52.112;9.366;2023-08-01T16:33:09;3.85;;;1.85;;
46983;SDS011;34732;52.112;9.366;2023-08-01T16:36:34;2.05;;;1.40;;
46983;SDS011;34732;52.112;9.366;2023-08-01T16:40:02;2.50;;;1.42;;
46983;SDS011;34732;52.112;9.366;2023-08-01T16:43:24;5.18;;;1.42;;
46983;SDS011;34732;52.112;9.366;2023-08-01T16:46:49;3.03;;;1.30;;
46983;SDS011;34732;52.112;9.366;2023-08-01T16:50:17;4.90;;;1.60;;
46983;SDS011;34732;52.112;9.366;2023-08-01T16:53:39;3.75;;;1.42;;
46983;SDS011;34732;52.112;9.366;2023-08-01T16:57:01;5.93;;;1.80;;
46983;SDS011;34732;52.112;9.366;2023-08-01T17:00:23;7.68;;;1.63;;
46983;SDS011;34732;52.112;9.366;2023-08-01T17:03:49;5.45;;;1.88;;
46983;SDS011;34732;52.112;9.366;2023-08-01T17:07:10;8.25;;;1.50;;
46983;SDS011;34732;52.112;9.366;2023-08-01T17:10:33;3.08;;;1.52;;
46983;SDS011;34732;52.112;9.366;2023-08-01T17:13:55;2.92;;;1.73;;
46983;SDS011;34732;52.112;9.366;2023-08-01T17:17:17;7.35;;;1.67;;
46983;SDS011;34732;52.112;9.366;2023-08-01T17:20:41;3.92;;;1.90;;
46983;SDS011;34732;52.112;9.366;2023-08-01T17:27:26;6.50;;;1.70;;
46983;SDS011;34732;52.112;9.366;2023-08-01T17:30:50;9.25;;;1.88;;
46983;SDS011;34732;52.112;9.366;2023-08-01T17:34:14;5.13;;;1.73;;
46983;SDS011;34732;52.112;9.366;2023-08-01T17:37:37;8.27;;;1.73;;
46983;SDS011;34732;52.112;9.366;2023-08-01T17:41:15;9.68;;;1.58;;
46983;SDS011;34732;52.112;9.366;2023-08-01T17:44:37;5.60;;;1.63;;
46983;SDS011;34732;52.112;9.366;2023-08-01T17:48:03;5.38;;;1.70;;
46983;SDS011;34732;52.112;9.366;2023-08-01T17:51:27;5.25;;;1.58;;
46983;SDS011;34732;52.112;9.366;2023-08-01T17:54:52;8.18;;;1.70;;
46983;SDS011;34732;52.112;9.366;2023-08-01T17:58:20;4.65;;;1.70;;
46983;SDS011;34732;52.112;9.366;2023-08-01T18:01:48;4.82;;;1.42;;
46983;SDS011;34732;52.112;9.366;2023-08-01T18:05:12;5.38;;;1.45;;
46983;SDS011;34732;52.112;9.366;2023-08-01T18:08:35;5.47;;;1.77;;
46983;SDS011;34732;52.112;9.366;2023-08-01T18:11:56;4.78;;;1.77;;
46983;SDS011;34732;52.112;9.366;2023-08-01T18:15:25;9.65;;;2.15;;
46983;SDS011;34732;52.112;9.366;2023-08-01T18:18:48;4.18;;;1.48;;
46983;SDS011;34732;52.112;9.366;2023-08-01T18:22:12;3.42;;;1.23;;
46983;SDS011;34732;52.112;9.366;2023-08-01T18:25:37;3.17;;;1.35;;
46983;SDS011;34732;52.112;9.366;2023-08-01T18:28:58;5.07;;;1.52;;
46983;SDS011;34732;52.112;9.366;2023-08-01T18:32:27;8.93;;;1.73;;
46983;SDS011;34732;52.112;9.366;2023-08-01T18:35:48;6.93;;;1.48;;
46983;SDS011;34732;52.112;9.366;2023-08-01T18:39:12;3.42;;;1.30;;
46983;SDS011;34732;52.112;9.366;2023-08-01T18:42:40;5.65;;;1.58;;
46983;SDS011;34732;52.112;9.366;2023-08-01T18:46:06;6.43;;;1.73;;
46983;SDS011;34732;52.112;9.366;2023-08-01T18:49:29;5.18;;;1.73;;
46983;SDS011;34732;52.112;9.366;2023-08-01T18:52:51;6.97;;;1.33;;
46983;SDS011;34732;52.112;9.366;2023-08-01T18:56:12;4.65;;;1.45;;
46983;SDS011;34732;52.112;9.366;2023-08-01T18:59:44;5.15;;;1.42;;
46983;SDS011;34732;52.112;9.366;2023-08-01T19:03:10;5.30;;;1.17;;
